Time;durP1;ratioP1;P1;durP2;ratioP2;P2;SDS_P1;SDS_P2;PMS_P1;PMS_P2;Temp;Humidity;BMP_temperature;BMP_pressure;BME280_temperature;BME280_humidity;BME280_pressure;Samples;Min_cycle;Max_cycle;Signal;HPM_P1;HPM_P2
2023/03/09 00:02:27;;;;;;;2.87;2.10;;;;;;;5.72;57.64;99489.81;6202883;28;21154;-68
2023/03/09 00:05:53;;;;;;;2.90;2.33;;;;;;;5.69;58.22;99490.94;6201433;28;20248;-69
2023/03/09 00:09:16;;;;;;;3.93;2.00;;;;;;;5.92;57.22;99496.06;6203972;28;20229;-69
2023/03/09 00:12:37;;;;;;;3.40;2.07;;;;;;;5.99;57.59;99507.88;6204572;28;20233;-68
2023/03/09 00:16:07;;;;;;;2.67;2.30;;;;;;;6.16;56.86;99500.00;6192841;28;21980;-68
2023/03/09 00:19:27;;;;;;;2.20;2.00;;;;;;;6.10;57.05;99508.59;6205119;28;20253;-69
2023/03/09 00:22:49;;;;;;;2.70;2.47;;;;;;;5.81;57.73;99502.38;6206383;28;20718;-68
2023/03/09 00:26:11;;;;;;;2.50;2.30;;;;;;;5.97;56.88;99497.31;6205049;28;20515;-69
2023/03/09 00:29:32;;;;;;;2.03;1.83;;;;;;;6.00;57.17;99488.19;6204916;28;20615;-69
2023/03/09 00:32:54;;;;;;;2.13;1.90;;;;;;;5.85;57.15;99487.75;6197018;28;20244;-68
2023/03/09 00:36:15;;;;;;;1.30;1.30;;;;;;;5.93;57.22;99490.56;6204950;28;20765;-68
2023/03/09 00:39:35;;;;;;;3.13;2.33;;;;;;;5.85;57.75;99500.28;6206293;28;20612;-69
2023/03/09 00:42:57;;;;;;;4.73;2.43;;;;;;;5.85;57.60;99495.78;6213383;28;20233;-69
2023/03/09 00:46:18;;;;;;;2.23;1.93;;;;;;;5.92;57.77;99474.69;6191391;28;20244;-68
2023/03/09 00:49:39;;;;;;;3.40;2.37;;;;;;;6.09;56.81;99468.63;6190366;28;20551;-70
2023/03/09 00:53:00;;;;;;;5.80;2.50;;;;;;;5.83;57.70;99457.63;6193691;28;20495;-70
2023/03/09 00:56:22;;;;;;;2.00;1.77;;;;;;;5.77;58.18;99460.00;6206872;28;20233;-69
2023/03/09 00:59:45;;;;;;;3.27;2.37;;;;;;;5.98;57.10;99455.38;6203526;28;20619;-70
2023/03/09 01:03:06;;;;;;;1.97;1.60;;;;;;;5.69;57.97;99458.88;6200191;28;21075;-70
2023/03/09 01:06:27;;;;;;;2.60;2.40;;;;;;;5.42;59.00;99453.34;6205233;28;20217;-68
2023/03/09 01:09:48;;;;;;;3.37;1.83;;;;;;;5.58;58.54;99453.69;6184782;28;20327;-70
2023/03/09 01:13:09;;;;;;;2.50;2.00;;;;;;;5.70;58.17;99457.03;6194113;28;20630;-70
2023/03/09 01:16:31;;;;;;;2.13;1.90;;;;;;;5.53;58.55;99455.91;6180742;28;20501;-69
2023/03/09 01:19:52;;;;;;;3.20;2.53;;;;;;;5.50;58.91;99456.22;6189954;28;20618;-69
2023/03/09 01:23:13;;;;;;;2.40;2.20;;;;;;;5.54;58.63;99456.75;6203385;28;20279;-69
2023/03/09 01:26:34;;;;;;;1.73;1.63;;;;;;;5.48;59.05;99455.50;6205592;28;20229;-69
2023/03/09 01:29:55;;;;;;;2.57;1.80;;;;;;;5.66;58.31;99456.50;6170232;28;20268;-70
2023/03/09 01:33:17;;;;;;;2.13;1.90;;;;;;;5.71;58.41;99453.41;6200570;28;20611;-70
2023/03/09 01:36:39;;;;;;;2.80;2.60;;;;;;;5.44;59.15;99447.91;6205810;28;20228;-70
2023/03/09 01:40:00;;;;;;;2.70;2.30;;;;;;;5.56;58.89;99449.44;6172832;28;20221;-68
2023/03/09 01:43:34;;;;;;;2.50;1.77;;;;;;;5.35;59.39;99446.91;6203528;28;20228;-68
2023/03/09 01:46:56;;;;;;;2.00;1.90;;;;;;;5.34;59.58;99447.88;6194067;28;20225;-69
2023/03/09 01:50:23;;;;;;;2.63;2.00;;;;;;;5.49;59.26;99448.31;6216680;28;20232;-69
2023/03/09 01:53:44;;;;;;;2.87;2.50;;;;;;;5.65;58.51;99449.44;6192039;28;20599;-69
2023/03/09 01:57:10;;;;;;;2.63;2.07;;;;;;;5.58;59.16;99444.81;6181766;28;20229;-69
2023/03/09 02:00:32;;;;;;;3.10;1.93;;;;;;;5.59;58.39;99451.84;6213831;28;20224;-69
2023/03/09 02:04:03;;;;;;;2.53;2.33;;;;;;;5.61;58.17;99439.19;6193642;28;20324;-69
2023/03/09 02:07:28;;;;;;;1.90;1.80;;;;;;;5.47;59.06;99445.78;6186209;28;20233;-69
2023/03/09 02:10:55;;;;;;;3.47;1.80;;;;;;;5.61;58.69;99442.69;6197194;28;20225;-69
2023/03/09 02:14:17;;;;;;;1.70;1.60;;;;;;;5.69;58.52;99436.66;6201669;28;20510;-69
2023/03/09 02:17:38;;;;;;;2.20;2.00;;;;;;;5.79;58.11;99445.50;6188502;28;20236;-69
2023/03/09 02:21:08;;;;;;;1.97;1.83;;;;;;;5.68;58.46;99451.00;6208000;28;20232;-69
2023/03/09 02:24:41;;;;;;;2.13;1.73;;;;;;;5.60;58.54;99445.50;6178160;28;20228;-69
2023/03/09 02:28:06;;;;;;;1.87;1.60;;;;;;;5.58;58.31;99442.13;6170823;28;20237;-68
2023/03/09 02:31:27;;;;;;;2.20;2.00;;;;;;;5.38;58.98;99449.28;6181123;28;20237;-69
2023/03/09 02:34:48;;;;;;;1.90;1.70;;;;;;;5.40;59.16;99454.50;6200896;28;20229;-70
2023/03/09 02:38:13;;;;;;;3.17;2.67;;;;;;;5.68;58.29;99457.19;6219219;28;20685;-69
2023/03/09 02:41:34;;;;;;;1.90;1.80;;;;;;;5.62;58.38;99452.41;6183447;28;20245;-69
2023/03/09 02:44:58;;;;;;;2.30;1.97;;;;;;;5.64;58.31;99455.78;6201789;28;20237;-70
2023/03/09 02:48:19;;;;;;;2.57;2.47;;;;;;;5.82;58.05;99463.94;6208281;28;20789;-69
2023/03/09 02:51:40;;;;;;;1.80;1.63;;;;;;;5.75;57.73;99457.47;6192046;28;20225;-70
2023/03/09 02:55:02;;;;;;;2.30;2.07;;;;;;;5.79;58.31;99463.38;6219553;28;20296;-69
2023/03/09 02:58:24;;;;;;;2.23;1.80;;;;;;;5.42;58.89;99464.03;6209815;28;20237;-69
2023/03/09 03:01:46;;;;;;;3.73;2.43;;;;;;;5.57;58.99;99459.13;6207604;28;20241;-69
2023/03/09 03:05:08;;;;;;;2.53;1.90;;;;;;;5.43;59.05;99459.56;6186287;28;20241;-70
2023/03/09 03:08:35;;;;;;;2.73;2.10;;;;;;;5.53;58.78;99468.41;6204469;28;20212;-69
2023/03/09 03:11:56;;;;;;;3.27;2.17;;;;;;;5.64;59.25;99476.31;6195647;28;20277;-70
2023/03/09 03:15:17;;;;;;;1.97;1.87;;;;;;;5.87;58.17;99479.59;6201875;28;20252;-69
2023/03/09 03:18:39;;;;;;;2.50;2.30;;;;;;;5.73;58.71;99471.97;6207341;28;20224;-68
2023/03/09 03:22:00;;;;;;;3.60;2.33;;;;;;;5.75;58.35;99468.16;6196747;28;20241;-70
2023/03/09 03:25:22;;;;;;;2.37;1.90;;;;;;;5.74;58.77;99473.66;6203336;28;20244;-68
2023/03/09 03:28:45;;;;;;;4.07;2.03;;;;;;;5.64;59.07;99470.97;6195350;28;20312;-70
2023/03/09 03:32:14;;;;;;;3.13;2.40;;;;;;;5.70;58.47;99470.41;6174328;28;20264;-69
2023/03/09 03:35:36;;;;;;;2.10;1.73;;;;;;;5.64;58.65;99479.84;6209454;28;20521;-69
2023/03/09 03:38:58;;;;;;;2.37;2.17;;;;;;;5.50;59.64;99482.94;6209287;28;20236;-69
2023/03/09 03:42:19;;;;;;;2.93;2.20;;;;;;;5.53;59.82;99492.47;6198703;28;20237;-68
2023/03/09 03:45:40;;;;;;;1.30;1.20;;;;;;;5.46;59.72;99494.88;6216476;28;20256;-69
2023/03/09 03:49:01;;;;;;;3.00;2.70;;;;;;;5.59;59.59;99503.47;6204646;28;20307;-69
2023/03/09 03:52:26;;;;;;;2.07;1.83;;;;;;;5.54;59.61;99494.19;6207298;28;20240;-69
2023/03/09 03:55:47;;;;;;;2.53;2.17;;;;;;;5.22;61.32;99509.56;6194283;28;20573;-69
2023/03/09 03:59:08;;;;;;;4.37;2.17;;;;;;;5.46;60.29;99497.56;6213850;28;20271;-69
2023/03/09 04:02:29;;;;;;;2.33;2.10;;;;;;;5.56;59.97;99502.91;6191114;28;20264;-69
2023/03/09 04:05:51;;;;;;;3.67;2.47;;;;;;;5.65;59.39;99510.91;6203896;28;20640;-69
2023/03/09 04:09:15;;;;;;;3.17;2.93;;;;;;;5.49;60.50;99518.63;6209771;28;20319;-69
2023/03/09 04:12:36;;;;;;;2.30;2.10;;;;;;;5.54;60.55;99520.91;6211495;28;20784;-69
2023/03/09 04:15:57;;;;;;;3.43;2.43;;;;;;;5.49;60.73;99521.31;6188381;28;20312;-70
2023/03/09 04:19:18;;;;;;;4.60;2.83;;;;;;;5.62;60.57;99527.25;6206741;28;20244;-69
2023/03/09 04:22:41;;;;;;;5.23;3.23;;;;;;;5.69;59.95;99530.22;6202035;28;20248;-69
2023/03/09 04:26:05;;;;;;;5.30;3.17;;;;;;;5.89;59.24;99526.59;6203635;28;20221;-69
2023/03/09 04:29:44;;;;;;;3.17;2.97;;;;;;;5.81;59.47;99529.09;6209071;28;20237;-68
2023/03/09 04:33:08;;;;;;;2.67;2.50;;;;;;;5.31;61.05;99539.00;6185956;28;20225;-70
2023/03/09 04:36:30;;;;;;;4.23;3.13;;;;;;;5.31;61.48;99541.66;6189694;28;20233;-68
2023/03/09 04:39:51;;;;;;;3.60;3.27;;;;;;;5.37;61.55;99538.44;6205972;28;20273;-69
2023/03/09 04:43:14;;;;;;;3.07;2.53;;;;;;;5.28;61.53;99544.59;6219960;28;20568;-70
2023/03/09 04:46:36;;;;;;;2.97;2.67;;;;;;;5.49;60.89;99550.72;6203609;28;20252;-69
2023/03/09 04:50:00;;;;;;;3.37;2.43;;;;;;;5.76;60.14;99562.59;6188297;28;20229;-70
2023/03/09 04:53:23;;;;;;;3.90;3.27;;;;;;;5.92;59.18;99560.25;6192997;28;20233;-69
2023/03/09 04:56:44;;;;;;;7.43;3.20;;;;;;;5.74;60.04;99560.03;6202191;28;20225;-69
2023/03/09 05:00:16;;;;;;;3.73;3.43;;;;;;;5.61;60.88;99562.16;6200884;28;20221;-68
2023/03/09 05:03:39;;;;;;;2.80;2.60;;;;;;;5.69;60.31;99570.31;6197945;28;20665;-69
2023/03/09 05:07:00;;;;;;;4.57;3.30;;;;;;;5.66;60.59;99579.47;6193888;28;20225;-70
2023/03/09 05:10:22;;;;;;;5.33;3.50;;;;;;;5.90;59.68;99580.94;6473924;22;20241;-69
2023/03/09 05:13:45;;;;;;;4.83;3.30;;;;;;;5.82;60.21;99575.41;6201889;28;20674;-70
2023/03/09 05:17:11;;;;;;;4.43;3.40;;;;;;;5.92;60.08;99573.63;6188935;28;20328;-70
2023/03/09 05:20:32;;;;;;;4.60;3.30;;;;;;;5.69;60.57;99573.00;6204229;28;20969;-69
2023/03/09 05:23:56;;;;;;;3.23;2.90;;;;;;;5.76;60.51;99566.09;6203751;28;20236;-69
2023/03/09 05:27:17;;;;;;;4.47;3.70;;;;;;;5.80;60.74;99572.84;6180054;28;20272;-69
2023/03/09 05:30:41;;;;;;;4.40;3.30;;;;;;;5.96;59.83;99575.88;6194709;28;20260;-69
2023/03/09 05:34:05;;;;;;;3.70;2.93;;;;;;;5.67;61.12;99581.13;6202779;28;20311;-69
2023/03/09 05:37:26;;;;;;;3.50;3.30;;;;;;;5.67;60.97;99578.47;6194980;28;20228;-69
2023/03/09 05:40:48;;;;;;;6.90;4.77;;;;;;;5.61;62.03;99578.19;6198763;28;20240;-69
2023/03/09 05:44:10;;;;;;;5.77;4.33;;;;;;;5.46;62.68;99584.88;6190482;28;20228;-70
2023/03/09 05:47:31;;;;;;;4.00;3.53;;;;;;;5.51;63.25;99593.31;6189207;28;20260;-69
2023/03/09 05:50:53;;;;;;;5.70;3.60;;;;;;;5.66;62.78;99590.16;6187228;28;20521;-69
2023/03/09 05:54:16;;;;;;;4.83;2.90;;;;;;;5.32;64.29;99591.44;6191378;28;20220;-70
2023/03/09 05:57:39;;;;;;;4.63;3.53;;;;;;;5.69;62.94;99594.38;6170902;28;20296;-69
2023/03/09 06:01:01;;;;;;;11.10;3.40;;;;;;;6.02;61.56;99595.88;6180980;28;20236;-69
2023/03/09 06:04:23;;;;;;;4.83;4.20;;;;;;;5.91;62.11;99609.38;6202033;28;20224;-69
2023/03/09 06:07:51;;;;;;;3.63;3.33;;;;;;;5.76;62.48;99614.22;6194443;28;20319;-69
2023/03/09 06:11:12;;;;;;;4.17;3.77;;;;;;;5.96;62.04;99613.34;6197554;28;20318;-70
2023/03/09 06:14:34;;;;;;;4.60;3.67;;;;;;;5.83;62.43;99611.84;6230292;28;20310;-69
2023/03/09 06:17:55;;;;;;;4.37;3.30;;;;;;;5.77;61.98;99623.94;6189994;28;20245;-70
2023/03/09 06:21:21;;;;;;;4.83;4.37;;;;;;;5.65;63.01;99628.53;6223207;28;20240;-69
2023/03/09 06:24:43;;;;;;;5.17;4.67;;;;;;;5.49;63.84;99632.69;6216708;28;20264;-69
2023/03/09 06:28:07;;;;;;;5.67;4.03;;;;;;;5.80;63.13;99636.22;6232227;28;20620;-70
2023/03/09 06:31:31;;;;;;;6.97;4.43;;;;;;;6.01;62.54;99642.31;6211502;28;20230;-69
2023/03/09 06:34:53;;;;;;;4.37;3.30;;;;;;;5.92;62.39;99644.00;6213918;28;20644;-70
2023/03/09 06:38:14;;;;;;;4.90;4.40;;;;;;;6.32;61.10;99651.97;6242234;28;20228;-69
2023/03/09 06:41:40;;;;;;;6.27;4.33;;;;;;;6.40;61.15;99655.59;6224861;28;20315;-70
2023/03/09 06:45:11;;;;;;;3.90;3.17;;;;;;;6.36;61.02;99670.25;6226864;28;20244;-70
2023/03/09 06:48:33;;;;;;;4.87;3.97;;;;;;;6.37;61.00;99671.97;6220586;28;20274;-72
2023/03/09 06:51:55;;;;;;;4.93;3.77;;;;;;;6.27;60.78;99673.78;6205033;28;20224;-73
2023/03/09 06:55:16;;;;;;;4.90;4.17;;;;;;;6.18;60.97;99674.59;6217485;28;20247;-73
2023/03/09 06:58:42;;;;;;;6.80;4.67;;;;;;;6.30;60.93;99676.16;6217537;28;20235;-73
2023/03/09 07:02:03;;;;;;;6.40;4.30;;;;;;;6.42;60.52;99675.06;6199781;28;20405;-72
2023/03/09 07:05:24;;;;;;;7.10;5.30;;;;;;;6.47;60.29;99678.16;6238112;28;20228;-69
2023/03/09 07:08:44;;;;;;;2.73;2.53;;;;;;;6.32;60.73;99684.91;6213066;28;20602;-71
2023/03/09 07:12:06;;;;;;;5.97;5.47;;;;;;;6.34;60.90;99692.81;6226721;28;20228;-70
2023/03/09 07:15:28;;;;;;;3.60;3.10;;;;;;;6.30;61.01;99694.09;6246900;28;20323;-71
2023/03/09 07:18:49;;;;;;;4.83;4.07;;;;;;;6.60;59.91;99714.53;6226837;28;20229;-69
2023/03/09 07:22:11;;;;;;;6.03;4.50;;;;;;;6.52;59.81;99727.75;6219638;28;20804;-70
2023/03/09 07:25:34;;;;;;;6.37;4.03;;;;;;;6.82;59.11;99730.34;6244293;28;20252;-71
2023/03/09 07:28:55;;;;;;;6.27;4.03;;;;;;;7.00;58.77;99728.63;6232921;28;20232;-72
2023/03/09 07:32:16;;;;;;;4.67;3.73;;;;;;;6.69;59.48;99735.13;6198431;28;20224;-69
2023/03/09 07:35:39;;;;;;;11.23;4.57;;;;;;;6.46;59.66;99737.22;6231217;28;20224;-70
2023/03/09 07:39:00;;;;;;;7.10;5.03;;;;;;;6.79;58.78;99744.00;6220444;28;20228;-69
2023/03/09 07:42:21;;;;;;;7.37;5.37;;;;;;;6.89;58.83;99748.38;6226177;28;20330;-69
2023/03/09 07:45:56;;;;;;;10.13;4.13;;;;;;;7.06;58.03;99755.72;6223710;28;20899;-70
2023/03/09 07:49:19;;;;;;;5.13;4.10;;;;;;;7.20;57.59;99760.63;6236072;28;20318;-69
2023/03/09 07:52:41;;;;;;;5.23;4.23;;;;;;;7.57;56.96;99760.72;6229304;28;20228;-69
2023/03/09 07:56:03;;;;;;;7.07;4.43;;;;;;;7.69;56.32;99762.25;6240920;28;20636;-70
2023/03/09 07:59:24;;;;;;;5.00;4.30;;;;;;;7.84;55.62;99760.78;6223571;28;20233;-69
2023/03/09 08:02:45;;;;;;;5.40;4.37;;;;;;;7.71;55.42;99756.75;6229089;28;20310;-69
2023/03/09 08:06:09;;;;;;;5.87;4.50;;;;;;;7.52;56.58;99765.69;6217552;28;20782;-72
2023/03/09 08:09:29;;;;;;;6.97;3.13;;;;;;;7.61;55.77;99772.88;6205892;28;20256;-69
2023/03/09 08:12:51;;;;;;;13.97;5.33;;;;;;;7.36;55.84;99773.47;6233841;28;20231;-70
2023/03/09 08:16:12;;;;;;;6.60;4.27;;;;;;;7.25;57.17;99770.94;6238239;28;20221;-68
2023/03/09 08:19:33;;;;;;;5.77;3.90;;;;;;;7.60;56.42;99781.88;6235565;28;20315;-71
2023/03/09 08:22:55;;;;;;;3.43;3.03;;;;;;;7.84;55.63;99779.56;6217842;28;20694;-69
2023/03/09 08:26:18;;;;;;;4.17;3.10;;;;;;;8.33;54.01;99781.09;6231569;28;20259;-72
2023/03/09 08:29:39;;;;;;;5.60;4.40;;;;;;;8.18;54.35;99777.19;6233965;28;20229;-71
2023/03/09 08:33:00;;;;;;;5.47;4.13;;;;;;;8.20;53.85;99769.00;6219065;28;20584;-70
2023/03/09 08:36:21;;;;;;;8.77;6.50;;;;;;;8.48;52.94;99774.25;6225933;28;20236;-69
2023/03/09 08:39:43;;;;;;;8.73;3.47;;;;;;;8.35;53.49;99780.94;6235256;28;20228;-69
2023/03/09 08:43:04;;;;;;;3.37;3.00;;;;;;;8.44;52.90;99780.91;6210885;28;20221;-72
2023/03/09 08:46:25;;;;;;;6.87;5.20;;;;;;;8.79;52.21;99785.50;6228371;28;20499;-70
2023/03/09 08:49:47;;;;;;;5.03;3.90;;;;;;;8.96;51.33;99789.19;6229343;28;20232;-68
2023/03/09 08:53:08;;;;;;;4.93;3.47;;;;;;;9.09;51.38;99793.22;6214449;28;20319;-67
2023/03/09 08:56:30;;;;;;;3.33;2.87;;;;;;;8.89;51.49;99797.03;6229487;28;20315;-70
2023/03/09 08:59:52;;;;;;;4.07;2.93;;;;;;;8.59;51.88;99789.31;6231825;28;20223;-71
2023/03/09 09:03:13;;;;;;;6.67;3.87;;;;;;;8.63;52.00;99785.31;6215639;28;20303;-71
2023/03/09 09:06:34;;;;;;;5.17;2.87;;;;;;;9.11;50.80;99795.75;6233555;28;20223;-68
2023/03/09 09:09:55;;;;;;;4.10;3.17;;;;;;;8.93;50.38;99793.03;6232706;28;20240;-69
2023/03/09 09:13:17;;;;;;;4.13;3.13;;;;;;;9.23;49.77;99798.03;6221993;28;20227;-71
2023/03/09 09:16:38;;;;;;;4.23;3.63;;;;;;;9.12;50.60;99811.72;6241937;28;20559;-72
2023/03/09 09:19:59;;;;;;;3.90;3.03;;;;;;;9.60;49.52;99812.16;6205328;28;20228;-70
2023/03/09 09:23:20;;;;;;;4.47;3.63;;;;;;;9.62;48.60;99814.66;6217021;28;20665;-73
2023/03/09 09:26:41;;;;;;;4.30;3.07;;;;;;;10.99;49.86;99808.19;6228147;28;20233;-74
2023/03/09 09:30:05;;;;;;;6.50;2.80;;;;;;;11.12;48.44;99805.00;6220717;28;20783;-76
2023/03/09 09:33:28;;;;;;;6.17;2.93;;;;;;;11.79;53.58;99804.72;6227402;28;20217;-75
2023/03/09 09:36:49;;;;;;;4.43;3.90;;;;;;;11.76;51.16;99815.91;6216829;28;20245;-72
2023/03/09 09:40:12;;;;;;;8.60;3.13;;;;;;;11.86;48.10;99823.81;6218973;28;20232;-70
2023/03/09 09:43:35;;;;;;;4.13;3.43;;;;;;;10.91;45.48;99826.22;6229849;28;20239;-72
2023/03/09 09:47:01;;;;;;;5.03;2.73;;;;;;;11.19;45.98;99822.22;6233842;28;20610;-72
2023/03/09 09:50:35;;;;;;;4.00;3.17;;;;;;;11.38;45.56;99826.47;6236222;28;20621;-74
2023/03/09 09:54:03;;;;;;;3.63;3.27;;;;;;;11.12;45.67;99823.88;6201691;28;20249;-69
2023/03/09 09:57:38;;;;;;;4.73;3.57;;;;;;;10.06;47.30;99837.03;6217531;28;20609;-68
2023/03/09 10:01:04;;;;;;;4.57;3.17;;;;;;;9.78;47.10;99846.25;6227976;28;20232;-72
2023/03/09 10:04:32;;;;;;;6.43;3.20;;;;;;;9.55;47.00;99849.44;6221556;28;20232;-72
2023/03/09 10:07:55;;;;;;;4.43;3.40;;;;;;;9.53;47.16;99848.72;6223202;28;20235;-71
2023/03/09 10:11:23;;;;;;;3.90;2.73;;;;;;;9.74;47.41;99842.19;6217233;28;20223;-70
2023/03/09 10:14:50;;;;;;;4.10;2.83;;;;;;;9.26;47.30;99853.38;6224904;28;20232;-71
2023/03/09 10:18:16;;;;;;;4.23;3.30;;;;;;;7.79;51.06;99856.09;6205774;28;20236;-70
2023/03/09 10:21:47;;;;;;;5.87;4.60;;;;;;;8.68;49.79;99855.56;6231170;28;20228;-71
2023/03/09 10:25:12;;;;;;;11.47;3.33;;;;;;;9.23;47.94;99859.03;6225875;28;20228;-73
2023/03/09 10:28:40;;;;;;;3.40;3.00;;;;;;;8.98;48.81;99862.47;6226349;28;20228;-71
2023/03/09 10:32:05;;;;;;;3.47;3.17;;;;;;;9.37;47.62;99863.88;6215560;28;20223;-69
2023/03/09 10:35:32;;;;;;;3.23;2.93;;;;;;;9.33;47.97;99865.19;6229788;28;20241;-69
2023/03/09 10:38:56;;;;;;;3.90;2.80;;;;;;;9.45;47.71;99870.19;6215566;28;20244;-69
2023/03/09 10:42:20;;;;;;;3.40;3.10;;;;;;;9.57;47.14;99878.88;6217751;28;20324;-70
2023/03/09 10:45:41;;;;;;;3.67;3.37;;;;;;;9.20;48.13;99881.69;6230278;28;20232;-74
2023/03/09 10:49:14;;;;;;;2.93;2.60;;;;;;;9.69;47.25;99874.94;6225633;28;20316;-70
2023/03/09 10:52:35;;;;;;;3.13;2.83;;;;;;;8.80;47.56;99873.19;6225323;28;20487;-70
2023/03/09 10:56:05;;;;;;;3.77;3.20;;;;;;;9.59;47.47;99880.44;6236716;28;20220;-74
2023/03/09 10:59:26;;;;;;;3.23;2.60;;;;;;;9.98;46.85;99880.06;6223258;28;20228;-69
2023/03/09 11:02:52;;;;;;;3.80;3.47;;;;;;;9.76;47.21;99892.19;6222972;28;20523;-72
2023/03/09 11:06:30;;;;;;;5.10;4.30;;;;;;;10.11;46.80;99889.47;6231636;28;20671;-70
2023/03/09 11:09:53;;;;;;;3.67;2.80;;;;;;;9.82;45.98;99888.00;6233607;28;20232;-72
2023/03/09 11:13:20;;;;;;;3.83;3.43;;;;;;;9.54;46.64;99889.94;6219902;28;20644;-71
2023/03/09 11:16:50;;;;;;;3.33;2.43;;;;;;;9.61;47.24;99899.09;6234919;28;20764;-69
2023/03/09 11:20:30;;;;;;;4.13;3.10;;;;;;;9.86;46.29;99894.78;6237469;28;20527;-71
2023/03/09 11:23:53;;;;;;;4.53;4.13;;;;;;;9.53;46.54;99899.84;6230407;28;20326;-72
2023/03/09 11:27:22;;;;;;;5.40;4.57;;;;;;;9.84;46.48;99881.47;6200159;28;20264;-68
2023/03/09 11:30:46;;;;;;;5.77;2.80;;;;;;;9.83;46.51;99887.00;6227402;28;20607;-69
2023/03/09 11:34:12;;;;;;;3.27;2.93;;;;;;;10.24;45.28;99883.66;6229016;28;20616;-69
2023/03/09 11:37:41;;;;;;;4.70;3.40;;;;;;;10.08;45.35;99887.03;6215822;28;20240;-69
2023/03/09 11:41:10;;;;;;;4.47;3.70;;;;;;;10.70;44.39;99885.09;6215504;28;20240;-68
2023/03/09 11:44:34;;;;;;;18.53;3.50;;;;;;;10.97;44.12;99879.47;6231200;28;20227;-68
2023/03/09 11:47:59;;;;;;;4.83;4.40;;;;;;;10.61;43.72;99878.81;6213115;28;20228;-68
2023/03/09 11:51:24;;;;;;;7.40;3.00;;;;;;;10.56;44.97;99882.97;6235373;28;20606;-68
2023/03/09 11:54:50;;;;;;;4.97;4.40;;;;;;;11.13;44.64;99879.53;6234166;28;20598;-69
2023/03/09 11:58:16;;;;;;;6.83;3.57;;;;;;;10.90;43.54;99883.84;6236046;28;20231;-68
2023/03/09 12:01:42;;;;;;;4.87;3.70;;;;;;;9.68;44.61;99896.66;6224109;28;20290;-69
2023/03/09 12:05:12;;;;;;;3.87;3.47;;;;;;;10.30;44.17;99886.56;6228711;28;20311;-70
2023/03/09 12:08:38;;;;;;;5.00;4.50;;;;;;;9.55;44.13;99892.47;6226997;28;20231;-71
2023/03/09 12:12:02;;;;;;;5.17;3.43;;;;;;;9.85;44.36;99890.38;6221830;28;20224;-70
2023/03/09 12:15:32;;;;;;;4.53;3.37;;;;;;;9.46;45.36;99885.34;6226864;28;20228;-70
2023/03/09 12:18:59;;;;;;;8.10;2.77;;;;;;;9.61;44.52;99886.50;6233367;28;20306;-70
2023/03/09 12:22:29;;;;;;;4.37;3.83;;;;;;;9.56;44.20;99880.72;6215212;28;20240;-72
2023/03/09 12:25:57;;;;;;;2.80;2.40;;;;;;;9.43;45.28;99879.41;6234777;28;20244;-72
2023/03/09 12:29:22;;;;;;;3.67;3.27;;;;;;;10.08;44.11;99880.78;6215973;28;20232;-71
2023/03/09 12:32:43;;;;;;;4.53;3.30;;;;;;;10.74;42.48;99871.16;6213266;28;20249;-71
2023/03/09 12:36:26;;;;;;;4.30;3.80;;;;;;;10.46;43.24;99869.63;6229441;28;20799;-70
2023/03/09 12:39:58;;;;;;;4.47;3.23;;;;;;;9.90;44.17;99874.63;6221793;28;20231;-69
2023/03/09 12:43:47;;;;;;;5.37;4.70;;;;;;;10.51;42.80;99861.94;6223058;28;20241;-70
2023/03/09 12:47:22;;;;;;;4.50;2.53;;;;;;;10.52;42.40;99863.59;6218758;28;20256;-70
2023/03/09 12:50:53;;;;;;;3.90;3.57;;;;;;;10.58;42.49;99862.09;6245841;28;20236;-69
2023/03/09 12:54:22;;;;;;;2.93;2.73;;;;;;;10.89;41.79;99855.19;6238657;28;20255;-68
2023/03/09 12:57:47;;;;;;;3.20;2.90;;;;;;;10.33;42.67;99862.00;6215312;28;20231;-70
2023/03/09 13:01:11;;;;;;;5.67;3.50;;;;;;;10.42;43.31;99869.13;6228252;28;20240;-71
2023/03/09 13:04:32;;;;;;;3.13;2.60;;;;;;;10.72;43.05;99875.00;6218521;28;20224;-70
2023/03/09 13:07:59;;;;;;;3.53;2.90;;;;;;;10.72;42.76;99870.44;6226344;28;20224;-69
2023/03/09 13:11:33;;;;;;;3.80;3.10;;;;;;;10.41;42.98;99871.94;6227320;28;20492;-69
2023/03/09 13:15:23;;;;;;;3.43;3.10;;;;;;;10.58;43.02;99873.75;6227611;28;20232;-71
2023/03/09 13:18:44;;;;;;;3.20;2.83;;;;;;;10.78;42.75;99885.13;6223258;28;20265;-69
2023/03/09 13:22:18;;;;;;;3.83;2.93;;;;;;;10.67;42.47;99886.25;6224447;28;20223;-71
2023/03/09 13:25:47;;;;;;;3.20;2.90;;;;;;;10.45;42.50;99871.47;6228571;28;20376;-70
2023/03/09 13:29:09;;;;;;;3.53;2.60;;;;;;;10.58;42.61;99873.75;6225301;28;20212;-72
2023/03/09 13:32:33;;;;;;;2.90;2.70;;;;;;;10.55;43.19;99878.63;6208520;28;20233;-71
2023/03/09 13:35:57;;;;;;;4.00;3.10;;;;;;;10.46;43.46;99877.72;6227352;28;20264;-71
2023/03/09 13:39:21;;;;;;;6.87;2.80;;;;;;;10.26;43.21;99887.84;6236092;28;20227;-69
2023/03/09 13:42:44;;;;;;;3.13;2.93;;;;;;;10.64;43.37;99881.19;6226279;28;20604;-71
2023/03/09 13:46:20;;;;;;;4.10;3.70;;;;;;;10.53;42.49;99892.25;6233723;28;20614;-70
2023/03/09 13:49:47;;;;;;;4.17;3.37;;;;;;;10.79;42.91;99876.03;6240142;28;20308;-70
2023/03/09 13:53:23;;;;;;;4.33;3.13;;;;;;;10.49;42.65;99881.94;6216139;28;20244;-71
2023/03/09 13:56:43;;;;;;;2.67;2.47;;;;;;;10.38;42.42;99889.31;6227058;28;20302;-69
2023/03/09 14:00:17;;;;;;;5.57;2.90;;;;;;;10.58;42.43;99879.13;6220469;28;20277;-69
2023/03/09 14:03:47;;;;;;;3.10;2.73;;;;;;;10.59;42.73;99869.19;6227630;28;20314;-69
2023/03/09 14:07:15;;;;;;;2.73;2.53;;;;;;;10.62;42.74;99875.09;6203779;28;20633;-70
2023/03/09 14:10:38;;;;;;;7.53;3.10;;;;;;;10.62;42.64;99861.63;6219446;28;21179;-71
2023/03/09 14:14:04;;;;;;;3.10;2.80;;;;;;;10.90;42.49;99871.19;6220033;28;20261;-70
2023/03/09 14:17:26;;;;;;;2.90;2.40;;;;;;;10.78;41.75;99879.75;6208342;28;20262;-71
2023/03/09 14:20:47;;;;;;;4.37;4.03;;;;;;;10.42;41.94;99870.97;6236203;28;20225;-71
2023/03/09 14:24:23;;;;;;;3.83;3.53;;;;;;;10.13;43.32;99876.69;6236455;28;20223;-70
2023/03/09 14:27:44;;;;;;;3.13;2.83;;;;;;;10.20;43.33;99864.25;6209664;28;20275;-69
2023/03/09 14:31:14;;;;;;;2.50;2.30;;;;;;;10.26;43.23;99871.69;6218744;28;20229;-70
2023/03/09 14:34:35;;;;;;;2.60;2.40;;;;;;;9.70;44.60;99868.56;6237390;28;20240;-70
2023/03/09 14:37:57;;;;;;;4.17;3.17;;;;;;;9.96;43.88;99871.28;6225331;28;20818;-71
2023/03/09 14:41:21;;;;;;;4.50;2.90;;;;;;;9.48;44.10;99872.59;6234449;28;20240;-69
2023/03/09 14:44:44;;;;;;;2.37;2.17;;;;;;;9.84;44.41;99862.63;6246042;28;20372;-70
2023/03/09 14:48:08;;;;;;;4.47;2.97;;;;;;;9.78;44.78;99865.97;6225840;28;20613;-72
2023/03/09 14:51:31;;;;;;;3.40;3.10;;;;;;;10.05;44.21;99860.44;6242134;28;20232;-68
2023/03/09 14:54:53;;;;;;;3.27;2.97;;;;;;;10.26;43.94;99852.03;6224314;28;20237;-69
2023/03/09 14:58:15;;;;;;;4.10;2.63;;;;;;;10.13;43.99;99859.69;6221636;28;20224;-72
2023/03/09 15:01:38;;;;;;;3.57;2.50;;;;;;;10.04;44.07;99857.88;6221497;28;20232;-69
2023/03/09 15:05:00;;;;;;;2.67;2.47;;;;;;;9.75;44.73;99850.09;6198610;28;20225;-68
2023/03/09 15:08:21;;;;;;;3.37;2.30;;;;;;;9.30;45.69;99854.75;6203637;28;20241;-70
2023/03/09 15:11:42;;;;;;;4.10;3.70;;;;;;;8.29;47.39;99859.41;6238993;28;20246;-68
2023/03/09 15:15:14;;;;;;;4.73;3.93;;;;;;;8.51;47.89;99853.69;6225175;28;20228;-68
2023/03/09 15:18:35;;;;;;;3.20;2.90;;;;;;;8.31;48.22;99854.72;6226886;28;20616;-70
2023/03/09 15:21:58;;;;;;;3.20;2.90;;;;;;;8.53;48.81;99844.44;6230811;28;20428;-74
2023/03/09 15:25:19;;;;;;;4.33;3.93;;;;;;;8.86;47.94;99851.91;6221426;28;20248;-74
2023/03/09 15:28:40;;;;;;;3.53;2.83;;;;;;;8.79;47.46;99850.84;6219657;28;20236;-75
2023/03/09 15:32:06;;;;;;;4.40;3.63;;;;;;;8.64;49.08;99838.91;6214553;28;20220;-74
2023/03/09 15:35:27;;;;;;;3.43;3.13;;;;;;;8.58;48.29;99838.66;6243518;28;20661;-74
2023/03/09 15:38:48;;;;;;;5.10;3.60;;;;;;;7.96;49.74;99834.75;6230078;28;20228;-75
2023/03/09 15:42:09;;;;;;;3.33;2.90;;;;;;;8.15;50.44;99833.84;6224733;28;20387;-76
2023/03/09 15:45:30;;;;;;;3.80;2.80;;;;;;;7.82;51.08;99827.16;6228722;28;20595;-73
2023/03/09 15:48:52;;;;;;;3.10;2.70;;;;;;;8.52;50.57;99837.41;6230579;28;20232;-74
2023/03/09 15:52:13;;;;;;;3.70;3.10;;;;;;;8.01;51.47;99835.16;6220383;28;20315;-74
2023/03/09 15:55:35;;;;;;;3.70;3.30;;;;;;;8.57;49.80;99831.59;6231507;28;20625;-74
2023/03/09 15:58:56;;;;;;;6.97;4.00;;;;;;;7.85;51.94;99828.69;6231802;28;20233;-74
2023/03/09 16:02:17;;;;;;;3.93;3.57;;;;;;;8.08;51.10;99835.41;6225982;28;20232;-75
2023/03/09 16:05:39;;;;;;;4.73;3.13;;;;;;;8.19;51.08;99839.78;6233900;28;20622;-74
2023/03/09 16:09:01;;;;;;;3.43;3.10;;;;;;;7.97;52.19;99835.59;6240067;28;20232;-74